createdAt,value
2023-08-25T00:01:33.996Z,76.96
2023-08-25T00:04:00.706Z,76.65
2023-08-25T00:06:27.217Z,77.21
2023-08-25T00:08:53.652Z,77.63
2023-08-25T00:11:20.099Z,78.20
2023-08-25T00:13:46.614Z,77.34
2023-08-25T00:16:14.474Z,76.69
2023-08-25T00:18:41.116Z,77.57
2023-08-25T00:21:07.564Z,78.16
2023-08-25T00:23:34.008Z,77.26
2023-08-25T00:26:00.518Z,77.14
2023-08-25T00:28:26.963Z,76.91
2023-08-25T00:30:54.259Z,77.22
2023-08-25T00:33:22.061Z,77.21
2023-08-25T00:35:48.523Z,77.22
2023-08-25T00:38:14.953Z,76.86
2023-08-25T00:40:41.408Z,77.55
2023-08-25T00:43:07.921Z,78.11
2023-08-25T00:45:39.525Z,78.22
2023-08-25T00:48:07.067Z,77.00
2023-08-25T00:50:35.324Z,77.12
2023-08-25T00:53:02.062Z,78.36
2023-08-25T00:55:29.067Z,77.95
2023-08-25T00:57:55.946Z,78.16
2023-08-25T01:00:24.434Z,78.17
2023-08-25T01:02:51.042Z,78.10
2023-08-25T01:05:17.667Z,78.15
2023-08-25T01:07:45.469Z,78.91
2023-08-25T01:10:12.163Z,78.05
2023-08-25T01:12:50.655Z,77.52
2023-08-25T01:15:23.430Z,77.87
2023-08-25T01:17:57.201Z,77.70
2023-08-25T01:20:24.386Z,78.20
2023-08-25T01:23:06.951Z,77.44
2023-08-25T01:25:35.471Z,77.74
2023-08-25T01:28:04.471Z,77.61
2023-08-25T01:30:32.399Z,77.11
2023-08-25T01:32:59.266Z,75.62
2023-08-25T01:35:36.073Z,76.62
2023-08-25T01:38:08.904Z,75.96
2023-08-25T01:40:43.153Z,76.60
2023-08-25T01:43:12.009Z,77.11
2023-08-25T01:45:38.431Z,76.60
2023-08-25T01:48:07.009Z,76.97
2023-08-25T01:50:35.041Z,77.01
2023-08-25T01:53:02.123Z,76.05
2023-08-25T01:55:28.546Z,75.88
2023-08-25T01:57:56.543Z,75.37
2023-08-25T02:00:25.068Z,74.03
2023-08-25T02:02:51.581Z,73.69
2023-08-25T02:05:18.205Z,74.14
2023-08-25T02:07:44.665Z,73.98
2023-08-25T02:10:11.517Z,74.01
2023-08-25T02:12:38.007Z,73.61
2023-08-25T02:15:07.452Z,73.84
2023-08-25T02:17:33.931Z,73.68
2023-08-25T02:20:00.460Z,74.29
2023-08-25T02:22:26.905Z,74.27
2023-08-25T02:24:53.347Z,74.47
2023-08-25T02:27:20.023Z,74.29
2023-08-25T02:29:46.508Z,75.61
2023-08-25T02:32:14.290Z,75.97
2023-08-25T02:34:40.804Z,75.39
2023-08-25T02:37:07.285Z,75.50
2023-08-25T02:39:33.724Z,75.11
2023-08-25T02:42:00.183Z,75.34
2023-08-25T02:44:26.637Z,75.04
2023-08-25T02:46:53.071Z,75.99
2023-08-25T02:49:20.866Z,75.41
2023-08-25T02:51:47.325Z,75.88
2023-08-25T02:54:13.810Z,75.77
2023-08-25T02:56:40.262Z,76.03
2023-08-25T02:59:06.742Z,76.43
2023-08-25T03:01:33.227Z,76.56
2023-08-25T03:04:00.053Z,76.11
2023-08-25T03:06:27.837Z,76.37
2023-08-25T03:08:54.290Z,76.34
2023-08-25T03:11:20.796Z,76.03
2023-08-25T03:13:47.302Z,76.31
2023-08-25T03:16:13.792Z,76.80
2023-08-25T03:18:40.290Z,76.40
2023-08-25T03:21:06.901Z,76.76
2023-08-25T03:23:34.669Z,77.15
2023-08-25T03:26:03.672Z,77.06
2023-08-25T03:28:30.189Z,76.89
2023-08-25T03:30:56.649Z,76.30
2023-08-25T03:33:23.130Z,76.70
2023-08-25T03:35:49.565Z,76.72
2023-08-25T03:38:15.993Z,77.29
2023-08-25T03:40:43.794Z,77.01
2023-08-25T03:43:10.228Z,76.93
2023-08-25T03:45:36.671Z,76.40
2023-08-25T03:48:03.664Z,76.88
2023-08-25T03:50:30.181Z,76.21
2023-08-25T03:52:56.642Z,75.89
2023-08-25T03:55:24.716Z,76.51
2023-08-25T03:57:53.050Z,77.01
2023-08-25T04:00:20.507Z,76.89
2023-08-25T04:02:47.002Z,77.29
2023-08-25T04:05:13.536Z,77.78
2023-08-25T04:07:39.982Z,77.52
2023-08-25T04:10:07.351Z,77.73
2023-08-25T04:12:34.037Z,77.45
2023-08-25T04:15:01.808Z,76.89
2023-08-25T04:17:28.305Z,77.07
2023-08-25T04:19:54.779Z,76.89
2023-08-25T04:22:21.258Z,76.59
2023-08-25T04:24:48.277Z,76.98
2023-08-25T04:27:14.725Z,76.58
2023-08-25T04:29:41.162Z,77.07
2023-08-25T04:32:08.963Z,77.38
2023-08-25T04:34:35.429Z,76.80
2023-08-25T04:37:01.878Z,77.75
2023-08-25T04:39:28.557Z,78.08
2023-08-25T04:41:55.002Z,77.46
2023-08-25T04:44:21.463Z,76.89
2023-08-25T04:46:48.036Z,77.12
2023-08-25T04:49:16.276Z,77.52
2023-08-25T04:51:42.736Z,77.51
2023-08-25T04:54:10.397Z,77.83
2023-08-25T04:56:36.830Z,77.94
2023-08-25T04:59:03.294Z,77.88
2023-08-25T05:01:29.873Z,78.31
2023-08-25T05:03:56.428Z,77.71
2023-08-25T05:06:24.280Z,78.03
2023-08-25T05:08:50.909Z,78.47
2023-08-25T05:11:17.363Z,78.30
2023-08-25T05:13:43.847Z,78.33
2023-08-25T05:16:10.567Z,78.38
2023-08-25T05:18:37.096Z,78.33
2023-08-25T05:21:03.633Z,77.96
2023-08-25T05:23:31.443Z,77.82
2023-08-25T05:25:57.911Z,78.13
2023-08-25T05:28:25.598Z,78.06
2023-08-25T05:30:53.588Z,77.73
2023-08-25T05:33:20.071Z,77.37
2023-08-25T05:35:46.568Z,78.37
2023-08-25T05:38:13.236Z,78.60
2023-08-25T05:40:41.029Z,78.68
2023-08-25T05:43:07.475Z,79.48
2023-08-25T05:45:34.262Z,79.47
2023-08-25T05:48:00.880Z,79.39
2023-08-25T05:50:27.371Z,79.37
2023-08-25T05:52:53.830Z,79.48
2023-08-25T05:55:20.340Z,78.53
2023-08-25T05:57:48.180Z,78.52
2023-08-25T06:00:15.275Z,79.03
2023-08-25T06:02:41.879Z,78.88
2023-08-25T06:05:08.748Z,78.10
2023-08-25T06:07:35.212Z,78.31
2023-08-25T06:10:01.798Z,77.73
2023-08-25T06:12:29.510Z,78.13
2023-08-25T06:14:57.325Z,78.03
2023-08-25T06:17:23.809Z,77.27
2023-08-25T06:19:50.264Z,77.48
2023-08-25T06:22:16.886Z,77.01
2023-08-25T06:24:43.319Z,76.17
2023-08-25T06:27:09.762Z,76.60
2023-08-25T06:29:36.207Z,76.70
2023-08-25T06:32:04.509Z,76.65
2023-08-25T06:34:31.032Z,77.28
2023-08-25T06:36:57.482Z,75.95
2023-08-25T06:39:23.923Z,75.73
2023-08-25T06:41:50.837Z,76.98
2023-08-25T06:44:17.353Z,75.83
2023-08-25T06:46:43.849Z,76.50
2023-08-25T06:49:11.659Z,75.73
2023-08-25T06:51:38.177Z,76.35
2023-08-25T06:54:07.332Z,75.91
2023-08-25T06:56:34.154Z,76.12
2023-08-25T06:59:00.598Z,75.47
2023-08-25T07:01:27.040Z,75.56
2023-08-25T07:03:53.577Z,75.64
2023-08-25T07:06:21.423Z,74.82
2023-08-25T07:08:47.887Z,75.40
2023-08-25T07:11:14.361Z,75.46
2023-08-25T07:13:40.854Z,75.13
2023-08-25T07:16:07.380Z,76.06
2023-08-25T07:18:33.844Z,75.14
2023-08-25T07:21:03.625Z,75.32
2023-08-25T07:23:31.436Z,74.88
2023-08-25T07:25:57.959Z,75.34
2023-08-25T07:28:24.585Z,74.45
2023-08-25T07:30:51.644Z,74.15
2023-08-25T07:33:18.217Z,73.71
2023-08-25T07:35:45.142Z,75.00
2023-08-25T07:38:11.577Z,74.31
2023-08-25T07:40:39.373Z,73.97
2023-08-25T07:43:05.924Z,74.07
2023-08-25T07:45:32.708Z,74.03
2023-08-25T07:47:59.703Z,73.98
2023-08-25T07:50:28.946Z,73.84
2023-08-25T07:52:55.730Z,75.31
2023-08-25T07:55:22.722Z,75.22
2023-08-25T07:57:51.034Z,75.14
2023-08-25T08:00:18.971Z,73.83
2023-08-25T08:02:46.958Z,72.94
2023-08-25T08:05:14.228Z,73.55
2023-08-25T08:07:40.704Z,72.86
2023-08-25T08:10:08.293Z,72.73
2023-08-25T08:12:34.822Z,73.02
2023-08-25T08:15:02.609Z,76.11
2023-08-25T08:17:29.121Z,76.35
2023-08-25T08:19:56.154Z,74.87
2023-08-25T08:22:22.702Z,72.71
2023-08-25T08:24:51.044Z,72.66
2023-08-25T08:27:18.907Z,73.80
2023-08-25T08:29:47.194Z,72.45
2023-08-25T08:32:17.185Z,71.70
2023-08-25T08:34:43.812Z,70.61
2023-08-25T08:37:10.257Z,69.99
2023-08-25T08:39:37.370Z,71.09
2023-08-25T08:42:04.936Z,70.00
2023-08-25T08:44:33.356Z,69.84
2023-08-25T08:47:00.325Z,70.86
2023-08-25T08:49:28.253Z,73.37
2023-08-25T08:51:57.153Z,72.95
2023-08-25T08:54:25.868Z,72.73
2023-08-25T08:56:52.637Z,71.91
2023-08-25T08:59:19.075Z,71.01
2023-08-25T09:01:45.876Z,72.42
2023-08-25T09:04:12.574Z,69.62
2023-08-25T09:06:40.920Z,69.61
2023-08-25T09:09:07.445Z,68.37
2023-08-25T09:11:33.936Z,69.21
2023-08-25T09:14:00.377Z,71.96
2023-08-25T09:16:26.865Z,68.70
2023-08-25T09:18:53.428Z,69.88
2023-08-25T09:21:21.355Z,69.92
2023-08-25T09:23:57.002Z,69.46
2023-08-25T09:26:24.137Z,70.29
2023-08-25T09:28:52.478Z,71.66
2023-08-25T09:31:23.369Z,71.43
2023-08-25T09:33:51.425Z,70.82
2023-08-25T09:36:17.930Z,70.45
2023-08-25T09:38:52.849Z,69.75
2023-08-25T09:41:27.964Z,70.33
2023-08-25T09:43:57.635Z,70.54
2023-08-25T09:46:27.409Z,70.38
2023-08-25T09:48:54.407Z,73.82
2023-08-25T09:51:22.082Z,71.21
2023-08-25T09:53:50.705Z,69.71
2023-08-25T09:56:19.410Z,70.27
2023-08-25T09:58:48.754Z,71.15
2023-08-25T10:01:15.684Z,69.93
2023-08-25T10:03:42.300Z,71.33
2023-08-25T10:06:09.701Z,72.09
2023-08-25T10:08:36.207Z,71.51
2023-08-25T10:11:04.383Z,72.65
2023-08-25T10:13:32.595Z,69.37
2023-08-25T10:16:02.987Z,74.27
2023-08-25T10:18:32.138Z,75.11
2023-08-25T10:21:00.616Z,73.30
2023-08-25T10:23:29.786Z,71.74
2023-08-25T10:25:56.374Z,71.67
2023-08-25T10:28:22.986Z,72.09
2023-08-25T10:30:49.519Z,71.46
2023-08-25T10:33:17.327Z,75.00
2023-08-25T10:35:45.389Z,73.54
2023-08-25T10:38:37.296Z,73.09
2023-08-25T10:41:19.632Z,76.56
2023-08-25T10:43:48.499Z,74.93
2023-08-25T10:46:15.014Z,74.38
2023-08-25T10:48:43.763Z,73.75
2023-08-25T10:51:12.039Z,76.22
2023-08-25T10:53:43.154Z,76.07
2023-08-25T10:56:20.803Z,79.85
2023-08-25T10:58:58.511Z,82.33
2023-08-25T11:01:26.289Z,79.79
2023-08-25T11:04:05.992Z,82.96
2023-08-25T11:06:43.093Z,83.71
2023-08-25T11:09:10.800Z,84.19
2023-08-25T11:11:38.424Z,90.82
2023-08-25T11:14:05.172Z,96.75
2023-08-25T11:16:31.711Z,98.98
2023-08-25T11:18:58.218Z,100.00
2023-08-25T11:21:26.650Z,100.00
2023-08-25T11:23:53.677Z,99.94
2023-08-25T11:26:20.216Z,100.00
2023-08-25T11:28:51.238Z,100.00
2023-08-25T11:31:20.783Z,100.00
2023-08-25T11:33:47.613Z,98.18
2023-08-25T11:36:14.342Z,99.54
2023-08-25T11:38:42.815Z,100.00
2023-08-25T11:41:10.813Z,100.00
2023-08-25T11:43:37.626Z,99.87
2023-08-25T11:46:04.954Z,100.00
2023-08-25T11:48:33.361Z,99.99
2023-08-25T11:51:00.547Z,100.00
2023-08-25T11:53:27.107Z,100.00
2023-08-25T11:56:05.717Z,100.00
2023-08-25T11:58:33.466Z,100.00
2023-08-25T12:01:01.122Z,100.00
2023-08-25T12:03:27.894Z,100.00
2023-08-25T12:05:54.614Z,100.00
2023-08-25T12:08:21.079Z,100.00
2023-08-25T12:10:47.611Z,100.00
2023-08-25T12:13:15.431Z,100.00
2023-08-25T12:15:42.863Z,100.00
2023-08-25T12:18:12.583Z,100.00
2023-08-25T12:20:42.917Z,100.00
2023-08-25T12:23:09.405Z,100.00
2023-08-25T12:25:35.954Z,100.00
2023-08-25T12:28:02.496Z,100.00
2023-08-25T12:30:31.031Z,100.00
2023-08-25T12:32:57.591Z,100.00
2023-08-25T12:35:24.115Z,100.00
2023-08-25T12:37:50.644Z,100.00
2023-08-25T12:40:17.141Z,100.00
2023-08-25T12:42:43.599Z,100.00
2023-08-25T12:45:10.587Z,100.00
2023-08-25T12:47:38.585Z,100.00
2023-08-25T12:50:05.896Z,100.00
2023-08-25T12:52:32.349Z,100.00
2023-08-25T12:55:10.103Z,100.00
2023-08-25T12:57:37.170Z,100.00
2023-08-25T13:00:04.670Z,100.00
2023-08-25T13:02:31.170Z,100.00
2023-08-25T13:04:58.974Z,100.00
2023-08-25T13:07:25.464Z,100.00
2023-08-25T13:09:51.922Z,100.00
2023-08-25T13:12:18.357Z,100.00
2023-08-25T13:14:44.893Z,100.00
2023-08-25T13:17:11.417Z,100.00
2023-08-25T13:19:37.927Z,100.00
2023-08-25T13:22:07.254Z,100.00
2023-08-25T13:24:33.817Z,100.00
2023-08-25T13:27:00.302Z,100.00
2023-08-25T13:29:26.782Z,100.00
2023-08-25T13:31:53.388Z,100.00
2023-08-25T13:34:19.870Z,100.00
2023-08-25T13:36:46.377Z,100.00
2023-08-25T13:39:14.176Z,100.00
2023-08-25T13:41:40.778Z,100.00
2023-08-25T13:44:07.293Z,100.00
2023-08-25T13:46:33.822Z,100.00
2023-08-25T13:49:00.399Z,100.00
2023-08-25T13:51:27.075Z,100.00
2023-08-25T13:53:54.121Z,100.00
2023-08-25T13:56:22.387Z,100.00
2023-08-25T13:58:49.763Z,100.00
2023-08-25T14:01:16.244Z,100.00
2023-08-25T14:03:42.956Z,100.00
2023-08-25T14:06:11.986Z,100.00
2023-08-25T14:08:38.766Z,100.00
2023-08-25T14:11:05.300Z,100.00
2023-08-25T14:13:33.239Z,100.00
2023-08-25T14:15:59.797Z,100.00
2023-08-25T14:18:28.183Z,100.00
2023-08-25T14:20:56.143Z,100.00
2023-08-25T14:23:22.607Z,100.00
2023-08-25T14:25:49.029Z,100.00
2023-08-25T14:28:15.528Z,100.00
2023-08-25T14:30:43.293Z,100.00
2023-08-25T14:33:09.880Z,100.00
2023-08-25T14:35:38.516Z,100.00
2023-08-25T14:38:04.989Z,100.00
2023-08-25T14:40:31.553Z,100.00
2023-08-25T14:42:58.034Z,100.00
2023-08-25T14:45:26.341Z,100.00
2023-08-25T14:47:54.391Z,100.00
2023-08-25T14:50:21.080Z,100.00
2023-08-25T14:52:47.821Z,100.00
2023-08-25T14:55:14.288Z,100.00
2023-08-25T14:57:40.899Z,100.00
2023-08-25T15:00:08.903Z,100.00
2023-08-25T15:02:39.267Z,100.00
2023-08-25T15:05:08.116Z,100.00
2023-08-25T15:07:34.698Z,100.00
2023-08-25T15:10:01.196Z,100.00
2023-08-25T15:12:27.671Z,100.00
2023-08-25T15:14:54.106Z,100.00
2023-08-25T15:17:20.516Z,100.00
2023-08-25T15:19:47.195Z,100.00
2023-08-25T15:22:15.124Z,100.00
2023-08-25T15:24:41.645Z,100.00
2023-08-25T15:27:08.106Z,100.00
2023-08-25T15:29:47.179Z,100.00
2023-08-25T15:32:17.369Z,100.00
2023-08-25T15:34:43.857Z,100.00
2023-08-25T15:37:10.364Z,100.00
2023-08-25T15:39:38.179Z,100.00
2023-08-25T15:42:05.040Z,98.46
2023-08-25T15:44:31.463Z,97.41
2023-08-25T15:46:57.986Z,97.68
2023-08-25T15:49:24.474Z,98.21
2023-08-25T15:51:51.066Z,97.90
2023-08-25T15:54:17.539Z,94.46
2023-08-25T15:56:45.321Z,95.64
2023-08-25T15:59:11.838Z,94.92
2023-08-25T16:01:38.503Z,94.09
2023-08-25T16:04:05.014Z,91.90
2023-08-25T16:06:31.530Z,93.29
2023-08-25T16:08:58.152Z,91.64
2023-08-25T16:11:24.608Z,92.88
2023-08-25T16:13:52.462Z,96.05
2023-08-25T16:16:18.960Z,91.73
2023-08-25T16:18:45.484Z,91.35
2023-08-25T16:21:11.908Z,89.83
2023-08-25T16:23:38.515Z,87.86
2023-08-25T16:26:05.657Z,91.85
2023-08-25T16:28:32.519Z,91.83
2023-08-25T16:31:01.931Z,92.41
2023-08-25T16:33:28.468Z,92.52
2023-08-25T16:35:54.896Z,89.52
2023-08-25T16:38:21.388Z,91.70
2023-08-25T16:40:47.845Z,90.77
2023-08-25T16:43:14.509Z,90.83
2023-08-25T16:45:41.260Z,89.77
2023-08-25T16:48:09.120Z,91.04
2023-08-25T16:50:35.925Z,90.93
2023-08-25T16:53:02.671Z,91.48
2023-08-25T16:55:29.116Z,91.13
2023-08-25T16:57:56.199Z,90.22
2023-08-25T17:00:23.618Z,87.01
2023-08-25T17:02:50.223Z,88.72
2023-08-25T17:05:18.096Z,86.43
2023-08-25T17:07:48.269Z,84.27
2023-08-25T17:10:15.387Z,83.67
2023-08-25T17:12:41.832Z,82.85
2023-08-25T17:15:09.427Z,82.14
2023-08-25T17:17:35.866Z,81.64
2023-08-25T17:20:02.366Z,84.10
2023-08-25T17:22:30.155Z,84.69
2023-08-25T17:24:56.620Z,83.45
2023-08-25T17:27:23.143Z,83.87
2023-08-25T17:29:49.633Z,81.63
2023-08-25T17:32:16.043Z,81.50
2023-08-25T17:34:43.545Z,80.62
2023-08-25T17:37:10.001Z,80.36
2023-08-25T17:39:37.779Z,80.70
2023-08-25T17:42:04.632Z,80.47
2023-08-25T17:44:31.696Z,80.57
2023-08-25T17:46:58.228Z,78.99
2023-08-25T17:49:24.743Z,79.72
2023-08-25T17:51:51.252Z,82.28
2023-08-25T17:54:19.034Z,80.02
2023-08-25T17:56:46.922Z,81.24
2023-08-25T17:59:13.529Z,80.48
2023-08-25T18:01:40.505Z,79.68
2023-08-25T18:04:07.221Z,80.72
2023-08-25T18:06:33.978Z,80.67
2023-08-25T18:09:00.714Z,81.20
2023-08-25T18:11:27.380Z,81.20
2023-08-25T18:13:55.698Z,83.25
2023-08-25T18:16:22.594Z,83.21
2023-08-25T18:18:49.360Z,83.86
2023-08-25T18:21:15.940Z,83.98
2023-08-25T18:23:42.757Z,84.53
2023-08-25T18:26:09.479Z,85.21
2023-08-25T18:28:36.169Z,83.08
2023-08-25T18:31:04.515Z,82.87
2023-08-25T18:33:31.364Z,84.09
2023-08-25T18:35:58.190Z,84.41
2023-08-25T18:38:25.308Z,83.68
2023-08-25T18:40:51.997Z,84.92
2023-08-25T18:43:18.740Z,84.40
2023-08-25T18:45:45.529Z,83.77
2023-08-25T18:48:13.525Z,83.60
2023-08-25T18:50:40.147Z,83.38
2023-08-25T18:53:07.024Z,84.78
2023-08-25T18:55:33.909Z,84.85
2023-08-25T18:58:00.806Z,85.17
2023-08-25T19:00:27.567Z,85.95
2023-08-25T19:02:54.573Z,85.97
2023-08-25T19:05:22.901Z,85.96
2023-08-25T19:07:49.413Z,86.99
2023-08-25T19:10:16.090Z,85.37
2023-08-25T19:12:42.968Z,86.56
2023-08-25T19:15:10.526Z,84.73
2023-08-25T19:17:37.046Z,85.65
2023-08-25T19:20:04.355Z,85.97
2023-08-25T19:22:32.202Z,85.82
2023-08-25T19:24:58.644Z,85.88
2023-08-25T19:27:25.117Z,86.55
2023-08-25T19:29:52.808Z,87.16
2023-08-25T19:32:19.269Z,87.19
2023-08-25T19:34:45.709Z,86.34
2023-08-25T19:37:12.148Z,85.74
2023-08-25T19:39:39.923Z,85.85
2023-08-25T19:42:06.786Z,84.67
2023-08-25T19:44:33.210Z,84.98
2023-08-25T19:46:59.831Z,85.16
2023-08-25T19:49:26.409Z,83.93
2023-08-25T19:51:52.843Z,84.30
2023-08-25T19:54:19.318Z,84.77
2023-08-25T19:56:47.092Z,84.81
2023-08-25T19:59:13.690Z,84.00
2023-08-25T20:01:40.155Z,86.43
2023-08-25T20:04:06.674Z,83.93
2023-08-25T20:06:33.161Z,82.26
2023-08-25T20:08:59.645Z,84.17
2023-08-25T20:11:26.152Z,84.31
2023-08-25T20:13:53.994Z,83.50
2023-08-25T20:16:20.490Z,84.29
2023-08-25T20:18:46.981Z,84.72
2023-08-25T20:21:13.436Z,82.41
2023-08-25T20:23:39.905Z,83.18
2023-08-25T20:26:06.570Z,83.40
2023-08-25T20:28:37.528Z,83.25
2023-08-25T20:31:05.366Z,84.35
2023-08-25T20:33:31.897Z,82.75
2023-08-25T20:35:58.374Z,83.73
2023-08-25T20:38:25.406Z,84.67
2023-08-25T20:40:56.989Z,83.91
2023-08-25T20:43:23.998Z,84.38
2023-08-25T20:46:11.606Z,83.41
2023-08-25T20:48:39.221Z,85.13
2023-08-25T20:51:05.706Z,86.11
2023-08-25T20:53:32.533Z,83.92
2023-08-25T20:55:59.106Z,86.47
2023-08-25T20:58:25.686Z,88.81
2023-08-25T21:00:52.286Z,88.61
2023-08-25T21:03:20.229Z,85.18
2023-08-25T21:05:46.915Z,85.64
2023-08-25T21:08:13.380Z,85.31
2023-08-25T21:10:39.996Z,86.73
2023-08-25T21:13:06.462Z,86.23
2023-08-25T21:15:33.131Z,85.79
2023-08-25T21:17:59.829Z,87.55
2023-08-25T21:20:27.593Z,89.09
2023-08-25T21:22:54.313Z,87.66
2023-08-25T21:25:21.056Z,88.34
2023-08-25T21:27:47.496Z,90.71
2023-08-25T21:30:14.460Z,92.39
2023-08-25T21:32:41.045Z,91.66
2023-08-25T21:35:08.736Z,88.82
2023-08-25T21:37:36.724Z,89.91
2023-08-25T21:40:03.634Z,89.90
2023-08-25T21:42:30.074Z,91.23
2023-08-25T21:44:56.571Z,91.95
2023-08-25T21:47:23.034Z,89.70
2023-08-25T21:49:49.623Z,89.25
2023-08-25T21:52:16.174Z,92.61
2023-08-25T21:54:44.087Z,90.90
2023-08-25T21:57:10.616Z,89.61
2023-08-25T21:59:37.118Z,88.81
2023-08-25T22:02:03.959Z,90.95
2023-08-25T22:04:30.444Z,89.33
2023-08-25T22:06:56.985Z,89.53
2023-08-25T22:09:23.866Z,91.51
2023-08-25T22:11:51.828Z,93.13
2023-08-25T22:14:18.506Z,94.72
2023-08-25T22:16:45.106Z,95.51
2023-08-25T22:19:11.584Z,96.55
2023-08-25T22:21:38.049Z,97.80
2023-08-25T22:24:05.600Z,97.52
2023-08-25T22:26:32.034Z,97.79
2023-08-25T22:28:59.914Z,98.36
2023-08-25T22:31:26.415Z,98.60
2023-08-25T22:36:22.475Z,98.95
2023-08-25T22:38:48.902Z,100.00
2023-08-25T22:41:15.547Z,99.43
2023-08-25T22:43:42.306Z,100.00
2023-08-25T22:46:10.399Z,100.00
2023-08-25T22:48:37.233Z,100.00
2023-08-25T22:51:03.785Z,100.00
2023-08-25T22:53:30.479Z,100.00
2023-08-25T22:55:57.300Z,100.00
2023-08-25T22:58:24.099Z,100.00
2023-08-25T23:00:51.093Z,100.00
2023-08-25T23:03:19.195Z,100.00
2023-08-25T23:05:45.734Z,100.00
2023-08-25T23:08:12.273Z,100.00
2023-08-25T23:10:39.860Z,100.00
2023-08-25T23:13:07.692Z,100.00
2023-08-25T23:15:35.127Z,100.00
2023-08-25T23:18:02.815Z,100.00
2023-08-25T23:20:31.410Z,100.00
2023-08-25T23:22:57.884Z,100.00
2023-08-25T23:25:24.703Z,100.00
2023-08-25T23:27:51.187Z,100.00
2023-08-25T23:30:18.015Z,100.00
2023-08-25T23:32:44.472Z,100.00
2023-08-25T23:35:11.024Z,100.00
2023-08-25T23:37:38.962Z,100.00
2023-08-25T23:40:07.131Z,100.00
2023-08-25T23:42:33.802Z,100.00
2023-08-25T23:45:00.606Z,100.00
2023-08-25T23:47:27.071Z,100.00
2023-08-25T23:49:53.555Z,100.00
2023-08-25T23:52:19.986Z,100.00
2023-08-25T23:54:47.763Z,100.00
2023-08-25T23:57:14.325Z,100.00
2023-08-25T23:59:40.922Z,100.00
